sensor_id;sensor_type;location;lat;lon;timestamp;P1;durP1;ratioP1;P2;durP2;ratioP2
77384;SDS011;66443;49.122;8.346;2023-12-28T00:00:23;16.70;;;14.30;;
77384;SDS011;66443;49.122;8.346;2023-12-28T00:02:48;21.37;;;14.97;;
77384;SDS011;66443;49.122;8.346;2023-12-28T00:05:13;20.50;;;13.80;;
77384;SDS011;66443;49.122;8.346;2023-12-28T00:07:39;18.63;;;15.10;;
77384;SDS011;66443;49.122;8.346;2023-12-28T00:10:04;21.60;;;15.00;;
77384;SDS011;66443;49.122;8.346;2023-12-28T00:12:30;17.67;;;14.07;;
77384;SDS011;66443;49.122;8.346;2023-12-28T00:14:55;15.10;;;13.60;;
77384;SDS011;66443;49.122;8.346;2023-12-28T00:17:20;15.50;;;13.70;;
77384;SDS011;66443;49.122;8.346;2023-12-28T00:19:46;18.37;;;12.57;;
77384;SDS011;66443;49.122;8.346;2023-12-28T00:22:11;18.03;;;13.60;;
77384;SDS011;66443;49.122;8.346;2023-12-28T00:24:36;14.27;;;11.83;;
77384;SDS011;66443;49.122;8.346;2023-12-28T00:27:01;14.47;;;12.63;;
77384;SDS011;66443;49.122;8.346;2023-12-28T00:29:27;14.30;;;12.03;;
77384;SDS011;66443;49.122;8.346;2023-12-28T00:31:53;13.80;;;12.43;;
77384;SDS011;66443;49.122;8.346;2023-12-28T00:34:18;13.67;;;11.83;;
77384;SDS011;66443;49.122;8.346;2023-12-28T00:36:44;16.77;;;11.83;;
77384;SDS011;66443;49.122;8.346;2023-12-28T00:39:09;14.37;;;11.30;;
77384;SDS011;66443;49.122;8.346;2023-12-28T00:41:34;13.43;;;11.60;;
77384;SDS011;66443;49.122;8.346;2023-12-28T00:43:59;12.10;;;11.00;;
77384;SDS011;66443;49.122;8.346;2023-12-28T00:46:25;12.13;;;10.33;;
77384;SDS011;66443;49.122;8.346;2023-12-28T00:48:50;12.83;;;11.50;;
77384;SDS011;66443;49.122;8.346;2023-12-28T00:51:16;19.13;;;12.13;;
77384;SDS011;66443;49.122;8.346;2023-12-28T00:53:42;14.43;;;10.87;;
77384;SDS011;66443;49.122;8.346;2023-12-28T00:56:07;14.57;;;11.43;;
77384;SDS011;66443;49.122;8.346;2023-12-28T00:58:32;13.60;;;11.17;;
77384;SDS011;66443;49.122;8.346;2023-12-28T01:00:57;13.37;;;10.80;;
77384;SDS011;66443;49.122;8.346;2023-12-28T01:03:23;15.33;;;10.27;;
77384;SDS011;66443;49.122;8.346;2023-12-28T01:05:48;11.23;;;10.13;;
77384;SDS011;66443;49.122;8.346;2023-12-28T01:08:15;14.07;;;10.40;;
77384;SDS011;66443;49.122;8.346;2023-12-28T01:10:41;14.93;;;10.50;;
77384;SDS011;66443;49.122;8.346;2023-12-28T01:13:06;12.27;;;11.00;;
77384;SDS011;66443;49.122;8.346;2023-12-28T01:15:32;10.43;;;9.43;;
77384;SDS011;66443;49.122;8.346;2023-12-28T01:17:58;11.47;;;10.27;;
77384;SDS011;66443;49.122;8.346;2023-12-28T01:20:23;14.67;;;9.80;;
77384;SDS011;66443;49.122;8.346;2023-12-28T01:22:48;10.27;;;9.17;;
77384;SDS011;66443;49.122;8.346;2023-12-28T01:25:15;16.90;;;9.90;;
77384;SDS011;66443;49.122;8.346;2023-12-28T01:27:40;9.13;;;8.23;;
77384;SDS011;66443;49.122;8.346;2023-12-28T01:30:05;9.90;;;7.73;;
77384;SDS011;66443;49.122;8.346;2023-12-28T01:32:31;10.13;;;8.17;;
77384;SDS011;66443;49.122;8.346;2023-12-28T01:34:56;11.53;;;9.57;;
77384;SDS011;66443;49.122;8.346;2023-12-28T01:37:21;10.57;;;8.17;;
77384;SDS011;66443;49.122;8.346;2023-12-28T01:39:46;9.43;;;8.23;;
77384;SDS011;66443;49.122;8.346;2023-12-28T01:42:12;8.67;;;6.53;;
77384;SDS011;66443;49.122;8.346;2023-12-28T01:44:37;8.57;;;7.30;;
77384;SDS011;66443;49.122;8.346;2023-12-28T01:47:02;8.87;;;6.40;;
77384;SDS011;66443;49.122;8.346;2023-12-28T01:49:27;9.30;;;6.53;;
77384;SDS011;66443;49.122;8.346;2023-12-28T01:51:52;6.60;;;5.90;;
77384;SDS011;66443;49.122;8.346;2023-12-28T01:54:18;8.67;;;5.87;;
77384;SDS011;66443;49.122;8.346;2023-12-28T01:56:44;8.23;;;5.77;;
77384;SDS011;66443;49.122;8.346;2023-12-28T01:59:10;7.33;;;5.60;;
77384;SDS011;66443;49.122;8.346;2023-12-28T02:01:35;7.13;;;6.43;;
77384;SDS011;66443;49.122;8.346;2023-12-28T02:04:00;8.47;;;6.80;;
77384;SDS011;66443;49.122;8.346;2023-12-28T02:06:26;6.83;;;5.77;;
77384;SDS011;66443;49.122;8.346;2023-12-28T02:08:51;5.87;;;5.27;;
77384;SDS011;66443;49.122;8.346;2023-12-28T02:11:17;5.23;;;4.63;;
77384;SDS011;66443;49.122;8.346;2023-12-28T02:13:43;5.70;;;5.10;;
77384;SDS011;66443;49.122;8.346;2023-12-28T02:16:25;5.77;;;5.13;;
77384;SDS011;66443;49.122;8.346;2023-12-28T02:18:54;6.47;;;5.70;;
77384;SDS011;66443;49.122;8.346;2023-12-28T02:21:20;5.70;;;5.10;;
77384;SDS011;66443;49.122;8.346;2023-12-28T02:23:49;6.53;;;5.57;;
77384;SDS011;66443;49.122;8.346;2023-12-28T02:26:18;7.70;;;5.40;;
77384;SDS011;66443;49.122;8.346;2023-12-28T02:28:43;5.83;;;5.10;;
77384;SDS011;66443;49.122;8.346;2023-12-28T02:31:10;4.83;;;4.33;;
77384;SDS011;66443;49.122;8.346;2023-12-28T02:33:58;5.77;;;4.53;;
77384;SDS011;66443;49.122;8.346;2023-12-28T02:36:22;4.40;;;4.00;;
77384;SDS011;66443;49.122;8.346;2023-12-28T02:38:48;4.60;;;4.20;;
77384;SDS011;66443;49.122;8.346;2023-12-28T02:41:14;4.37;;;3.97;;
77384;SDS011;66443;49.122;8.346;2023-12-28T02:43:40;4.60;;;3.90;;
77384;SDS011;66443;49.122;8.346;2023-12-28T02:46:05;4.40;;;4.00;;
77384;SDS011;66443;49.122;8.346;2023-12-28T02:48:30;4.40;;;4.00;;
77384;SDS011;66443;49.122;8.346;2023-12-28T02:50:55;5.13;;;4.27;;
77384;SDS011;66443;49.122;8.346;2023-12-28T02:53:21;4.00;;;3.63;;
77384;SDS011;66443;49.122;8.346;2023-12-28T02:55:46;4.13;;;3.73;;
77384;SDS011;66443;49.122;8.346;2023-12-28T02:58:11;4.97;;;3.27;;
77384;SDS011;66443;49.122;8.346;2023-12-28T03:00:36;4.17;;;3.70;;
77384;SDS011;66443;49.122;8.346;2023-12-28T03:03:02;4.20;;;3.70;;
77384;SDS011;66443;49.122;8.346;2023-12-28T03:05:27;3.70;;;3.40;;
77384;SDS011;66443;49.122;8.346;2023-12-28T03:07:52;3.10;;;2.80;;
77384;SDS011;66443;49.122;8.346;2023-12-28T03:10:20;4.13;;;3.40;;
77384;SDS011;66443;49.122;8.346;2023-12-28T03:12:45;3.30;;;2.80;;
77384;SDS011;66443;49.122;8.346;2023-12-28T03:15:10;3.00;;;2.70;;
77384;SDS011;66443;49.122;8.346;2023-12-28T03:17:36;4.30;;;3.00;;
77384;SDS011;66443;49.122;8.346;2023-12-28T03:20:02;3.37;;;3.00;;
77384;SDS011;66443;49.122;8.346;2023-12-28T03:22:27;3.13;;;2.80;;
77384;SDS011;66443;49.122;8.346;2023-12-28T03:24:52;3.37;;;3.07;;
77384;SDS011;66443;49.122;8.346;2023-12-28T03:27:18;3.20;;;2.73;;
77384;SDS011;66443;49.122;8.346;2023-12-28T03:29:43;4.67;;;2.60;;
77384;SDS011;66443;49.122;8.346;2023-12-28T03:32:08;4.77;;;3.33;;
77384;SDS011;66443;49.122;8.346;2023-12-28T03:34:34;3.10;;;2.63;;
77384;SDS011;66443;49.122;8.346;2023-12-28T03:36:59;2.60;;;2.23;;
77384;SDS011;66443;49.122;8.346;2023-12-28T03:39:25;3.53;;;2.77;;
77384;SDS011;66443;49.122;8.346;2023-12-28T03:41:50;2.33;;;2.13;;
77384;SDS011;66443;49.122;8.346;2023-12-28T03:44:15;4.50;;;2.73;;
77384;SDS011;66443;49.122;8.346;2023-12-28T03:46:40;3.97;;;3.07;;
77384;SDS011;66443;49.122;8.346;2023-12-28T03:49:06;3.57;;;3.17;;
77384;SDS011;66443;49.122;8.346;2023-12-28T03:51:31;2.80;;;2.60;;
77384;SDS011;66443;49.122;8.346;2023-12-28T03:53:56;2.93;;;2.70;;
77384;SDS011;66443;49.122;8.346;2023-12-28T03:56:22;2.70;;;2.40;;
77384;SDS011;66443;49.122;8.346;2023-12-28T03:58:49;2.87;;;2.60;;
77384;SDS011;66443;49.122;8.346;2023-12-28T04:01:15;3.07;;;2.57;;
77384;SDS011;66443;49.122;8.346;2023-12-28T04:03:40;3.23;;;2.50;;
77384;SDS011;66443;49.122;8.346;2023-12-28T04:06:06;4.17;;;2.70;;
77384;SDS011;66443;49.122;8.346;2023-12-28T04:08:31;3.37;;;3.07;;
77384;SDS011;66443;49.122;8.346;2023-12-28T04:10:57;5.57;;;3.30;;
77384;SDS011;66443;49.122;8.346;2023-12-28T04:13:22;2.97;;;2.77;;
77384;SDS011;66443;49.122;8.346;2023-12-28T04:15:47;4.20;;;2.97;;
77384;SDS011;66443;49.122;8.346;2023-12-28T04:18:12;3.30;;;2.97;;
77384;SDS011;66443;49.122;8.346;2023-12-28T04:20:37;3.10;;;2.87;;
77384;SDS011;66443;49.122;8.346;2023-12-28T04:23:03;3.43;;;2.83;;
77384;SDS011;66443;49.122;8.346;2023-12-28T04:25:28;3.73;;;2.83;;
77384;SDS011;66443;49.122;8.346;2023-12-28T04:27:53;2.87;;;2.63;;
77384;SDS011;66443;49.122;8.346;2023-12-28T04:30:18;3.00;;;2.80;;
77384;SDS011;66443;49.122;8.346;2023-12-28T04:32:43;5.07;;;2.43;;
77384;SDS011;66443;49.122;8.346;2023-12-28T04:35:08;3.70;;;2.47;;
77384;SDS011;66443;49.122;8.346;2023-12-28T04:37:34;3.13;;;2.83;;
77384;SDS011;66443;49.122;8.346;2023-12-28T04:40:00;2.73;;;2.53;;
77384;SDS011;66443;49.122;8.346;2023-12-28T04:42:25;3.57;;;2.10;;
77384;SDS011;66443;49.122;8.346;2023-12-28T04:44:50;2.53;;;2.27;;
77384;SDS011;66443;49.122;8.346;2023-12-28T04:47:15;2.80;;;2.53;;
77384;SDS011;66443;49.122;8.346;2023-12-28T04:49:40;2.63;;;2.40;;
77384;SDS011;66443;49.122;8.346;2023-12-28T04:52:06;2.70;;;2.00;;
77384;SDS011;66443;49.122;8.346;2023-12-28T04:54:31;2.60;;;2.17;;
77384;SDS011;66443;49.122;8.346;2023-12-28T04:56:57;3.87;;;2.40;;
77384;SDS011;66443;49.122;8.346;2023-12-28T04:59:22;2.67;;;2.47;;
77384;SDS011;66443;49.122;8.346;2023-12-28T05:01:48;2.80;;;2.60;;
77384;SDS011;66443;49.122;8.346;2023-12-28T05:04:13;3.50;;;2.73;;
77384;SDS011;66443;49.122;8.346;2023-12-28T05:06:38;2.70;;;2.50;;
77384;SDS011;66443;49.122;8.346;2023-12-28T05:09:03;2.50;;;2.30;;
77384;SDS011;66443;49.122;8.346;2023-12-28T05:11:29;2.90;;;2.20;;
77384;SDS011;66443;49.122;8.346;2023-12-28T05:13:54;3.50;;;2.57;;
77384;SDS011;66443;49.122;8.346;2023-12-28T05:16:19;2.57;;;2.33;;
77384;SDS011;66443;49.122;8.346;2023-12-28T05:18:45;2.57;;;2.37;;
77384;SDS011;66443;49.122;8.346;2023-12-28T05:21:10;2.37;;;2.17;;
77384;SDS011;66443;49.122;8.346;2023-12-28T05:23:36;2.90;;;2.17;;
77384;SDS011;66443;49.122;8.346;2023-12-28T05:26:01;4.37;;;2.40;;
77384;SDS011;66443;49.122;8.346;2023-12-28T05:28:26;2.40;;;2.20;;
77384;SDS011;66443;49.122;8.346;2023-12-28T05:30:52;2.30;;;2.10;;
77384;SDS011;66443;49.122;8.346;2023-12-28T05:33:17;2.67;;;2.47;;
77384;SDS011;66443;49.122;8.346;2023-12-28T05:35:42;1.97;;;1.60;;
77384;SDS011;66443;49.122;8.346;2023-12-28T05:38:07;2.60;;;2.40;;
77384;SDS011;66443;49.122;8.346;2023-12-28T05:40:32;3.03;;;2.53;;
77384;SDS011;66443;49.122;8.346;2023-12-28T05:42:57;2.87;;;1.90;;
77384;SDS011;66443;49.122;8.346;2023-12-28T05:45:23;2.70;;;2.20;;
77384;SDS011;66443;49.122;8.346;2023-12-28T05:47:48;3.33;;;2.07;;
77384;SDS011;66443;49.122;8.346;2023-12-28T05:50:13;2.67;;;2.47;;
77384;SDS011;66443;49.122;8.346;2023-12-28T05:52:38;2.10;;;1.77;;
77384;SDS011;66443;49.122;8.346;2023-12-28T05:55:04;2.23;;;2.00;;
77384;SDS011;66443;49.122;8.346;2023-12-28T05:57:29;3.13;;;2.13;;
77384;SDS011;66443;49.122;8.346;2023-12-28T05:59:56;2.47;;;1.63;;
77384;SDS011;66443;49.122;8.346;2023-12-28T06:02:21;1.60;;;1.40;;
77384;SDS011;66443;49.122;8.346;2023-12-28T06:04:46;2.20;;;2.00;;
77384;SDS011;66443;49.122;8.346;2023-12-28T06:07:11;1.70;;;1.50;;
77384;SDS011;66443;49.122;8.346;2023-12-28T06:09:36;2.73;;;2.17;;
77384;SDS011;66443;49.122;8.346;2023-12-28T06:12:03;2.00;;;1.70;;
77384;SDS011;66443;49.122;8.346;2023-12-28T06:14:29;1.93;;;1.70;;
77384;SDS011;66443;49.122;8.346;2023-12-28T06:16:55;2.27;;;2.07;;
77384;SDS011;66443;49.122;8.346;2023-12-28T06:19:20;2.90;;;1.63;;
77384;SDS011;66443;49.122;8.346;2023-12-28T06:21:45;3.90;;;2.27;;
77384;SDS011;66443;49.122;8.346;2023-12-28T06:24:11;2.70;;;2.00;;
77384;SDS011;66443;49.122;8.346;2023-12-28T06:26:40;2.80;;;2.57;;
77384;SDS011;66443;49.122;8.346;2023-12-28T06:29:05;1.90;;;1.80;;
77384;SDS011;66443;49.122;8.346;2023-12-28T06:31:31;2.73;;;2.00;;
77384;SDS011;66443;49.122;8.346;2023-12-28T06:33:58;1.80;;;1.70;;
77384;SDS011;66443;49.122;8.346;2023-12-28T06:36:23;1.97;;;1.87;;
77384;SDS011;66443;49.122;8.346;2023-12-28T06:38:49;2.43;;;1.80;;
77384;SDS011;66443;49.122;8.346;2023-12-28T06:41:14;2.00;;;1.80;;
77384;SDS011;66443;49.122;8.346;2023-12-28T06:43:39;2.80;;;2.10;;
77384;SDS011;66443;49.122;8.346;2023-12-28T06:46:04;2.40;;;2.07;;
77384;SDS011;66443;49.122;8.346;2023-12-28T06:48:30;1.70;;;1.60;;
77384;SDS011;66443;49.122;8.346;2023-12-28T06:50:55;2.40;;;1.90;;
77384;SDS011;66443;49.122;8.346;2023-12-28T06:53:20;2.57;;;2.03;;
77384;SDS011;66443;49.122;8.346;2023-12-28T06:55:45;3.13;;;2.83;;
77384;SDS011;66443;49.122;8.346;2023-12-28T06:58:11;2.23;;;1.97;;
77384;SDS011;66443;49.122;8.346;2023-12-28T07:00:36;2.20;;;2.00;;
77384;SDS011;66443;49.122;8.346;2023-12-28T07:03:01;2.50;;;2.13;;
77384;SDS011;66443;49.122;8.346;2023-12-28T07:05:26;2.40;;;1.90;;
77384;SDS011;66443;49.122;8.346;2023-12-28T07:07:51;3.43;;;2.10;;
77384;SDS011;66443;49.122;8.346;2023-12-28T07:10:16;2.30;;;2.10;;
77384;SDS011;66443;49.122;8.346;2023-12-28T07:12:42;3.43;;;2.53;;
77384;SDS011;66443;49.122;8.346;2023-12-28T07:15:07;2.27;;;1.80;;
77384;SDS011;66443;49.122;8.346;2023-12-28T07:17:34;1.97;;;1.80;;
77384;SDS011;66443;49.122;8.346;2023-12-28T07:19:59;2.03;;;1.90;;
77384;SDS011;66443;49.122;8.346;2023-12-28T07:22:25;2.37;;;1.93;;
77384;SDS011;66443;49.122;8.346;2023-12-28T07:24:50;2.93;;;2.43;;
77384;SDS011;66443;49.122;8.346;2023-12-28T07:27:15;3.63;;;2.57;;
77384;SDS011;66443;49.122;8.346;2023-12-28T07:29:40;2.43;;;2.23;;
77384;SDS011;66443;49.122;8.346;2023-12-28T07:32:06;2.43;;;2.23;;
77384;SDS011;66443;49.122;8.346;2023-12-28T07:34:33;4.40;;;2.97;;
77384;SDS011;66443;49.122;8.346;2023-12-28T07:36:58;4.03;;;2.70;;
77384;SDS011;66443;49.122;8.346;2023-12-28T07:39:23;3.90;;;3.27;;
77384;SDS011;66443;49.122;8.346;2023-12-28T07:41:48;3.50;;;2.80;;
77384;SDS011;66443;49.122;8.346;2023-12-28T07:44:14;3.67;;;3.30;;
77384;SDS011;66443;49.122;8.346;2023-12-28T07:46:39;3.83;;;3.20;;
77384;SDS011;66443;49.122;8.346;2023-12-28T07:49:05;3.83;;;2.90;;
77384;SDS011;66443;49.122;8.346;2023-12-28T07:51:30;2.93;;;2.63;;
77384;SDS011;66443;49.122;8.346;2023-12-28T07:53:55;2.37;;;2.20;;
77384;SDS011;66443;49.122;8.346;2023-12-28T07:56:20;2.85;;;2.50;;
77384;SDS011;66443;49.122;8.346;2023-12-28T07:58:45;4.30;;;2.33;;
77384;SDS011;66443;49.122;8.346;2023-12-28T08:01:11;4.10;;;2.27;;
77384;SDS011;66443;49.122;8.346;2023-12-28T08:03:36;4.47;;;2.60;;
77384;SDS011;66443;49.122;8.346;2023-12-28T08:06:01;3.33;;;2.60;;
77384;SDS011;66443;49.122;8.346;2023-12-28T08:08:26;3.70;;;2.57;;
77384;SDS011;66443;49.122;8.346;2023-12-28T08:10:51;2.63;;;2.13;;
77384;SDS011;66443;49.122;8.346;2023-12-28T08:13:17;3.13;;;2.33;;
77384;SDS011;66443;49.122;8.346;2023-12-28T08:15:42;3.10;;;2.60;;
77384;SDS011;66443;49.122;8.346;2023-12-28T08:18:07;3.43;;;2.80;;
77384;SDS011;66443;49.122;8.346;2023-12-28T08:20:32;2.03;;;1.90;;
77384;SDS011;66443;49.122;8.346;2023-12-28T08:22:57;2.73;;;2.53;;
77384;SDS011;66443;49.122;8.346;2023-12-28T08:25:22;4.90;;;3.07;;
77384;SDS011;66443;49.122;8.346;2023-12-28T08:27:48;2.80;;;2.60;;
77384;SDS011;66443;49.122;8.346;2023-12-28T08:30:13;3.03;;;2.77;;
77384;SDS011;66443;49.122;8.346;2023-12-28T08:32:38;2.43;;;2.23;;
77384;SDS011;66443;49.122;8.346;2023-12-28T08:35:03;2.97;;;2.67;;
77384;SDS011;66443;49.122;8.346;2023-12-28T08:37:29;4.77;;;3.00;;
77384;SDS011;66443;49.122;8.346;2023-12-28T08:39:54;5.70;;;3.40;;
77384;SDS011;66443;49.122;8.346;2023-12-28T08:42:20;5.50;;;3.10;;
77384;SDS011;66443;49.122;8.346;2023-12-28T08:44:45;4.17;;;2.50;;
77384;SDS011;66443;49.122;8.346;2023-12-28T08:47:10;3.23;;;2.70;;
77384;SDS011;66443;49.122;8.346;2023-12-28T08:49:35;3.90;;;2.57;;
77384;SDS011;66443;49.122;8.346;2023-12-28T08:52:01;5.03;;;4.53;;
77384;SDS011;66443;49.122;8.346;2023-12-28T08:54:26;5.30;;;4.80;;
77384;SDS011;66443;49.122;8.346;2023-12-28T08:56:51;6.63;;;5.90;;
77384;SDS011;66443;49.122;8.346;2023-12-28T08:59:16;7.23;;;6.50;;
77384;SDS011;66443;49.122;8.346;2023-12-28T09:01:41;4.90;;;4.40;;
77384;SDS011;66443;49.122;8.346;2023-12-28T09:04:06;4.30;;;3.90;;
77384;SDS011;66443;49.122;8.346;2023-12-28T09:06:32;4.90;;;4.50;;
77384;SDS011;66443;49.122;8.346;2023-12-28T09:08:57;3.90;;;3.50;;
77384;SDS011;66443;49.122;8.346;2023-12-28T09:11:23;5.60;;;4.17;;
77384;SDS011;66443;49.122;8.346;2023-12-28T09:13:48;4.03;;;3.73;;
77384;SDS011;66443;49.122;8.346;2023-12-28T09:16:14;4.40;;;3.50;;
77384;SDS011;66443;49.122;8.346;2023-12-28T09:18:39;3.10;;;2.60;;
77384;SDS011;66443;49.122;8.346;2023-12-28T09:21:05;2.77;;;2.57;;
77384;SDS011;66443;49.122;8.346;2023-12-28T09:23:34;2.93;;;2.63;;
77384;SDS011;66443;49.122;8.346;2023-12-28T09:25:59;3.87;;;3.20;;
77384;SDS011;66443;49.122;8.346;2023-12-28T09:28:25;2.90;;;2.30;;
77384;SDS011;66443;49.122;8.346;2023-12-28T09:30:50;2.73;;;2.53;;
77384;SDS011;66443;49.122;8.346;2023-12-28T09:33:15;3.63;;;2.10;;
77384;SDS011;66443;49.122;8.346;2023-12-28T09:35:41;2.73;;;2.53;;
77384;SDS011;66443;49.122;8.346;2023-12-28T09:38:06;3.33;;;2.83;;
77384;SDS011;66443;49.122;8.346;2023-12-28T09:40:31;7.80;;;2.80;;
77384;SDS011;66443;49.122;8.346;2023-12-28T09:43:09;3.33;;;2.60;;
77384;SDS011;66443;49.122;8.346;2023-12-28T09:45:37;2.93;;;2.73;;
77384;SDS011;66443;49.122;8.346;2023-12-28T09:48:03;2.83;;;2.20;;
77384;SDS011;66443;49.122;8.346;2023-12-28T09:50:29;2.47;;;2.27;;
77384;SDS011;66443;49.122;8.346;2023-12-28T09:52:54;2.03;;;1.93;;
77384;SDS011;66443;49.122;8.346;2023-12-28T09:55:20;2.50;;;2.30;;
77384;SDS011;66443;49.122;8.346;2023-12-28T09:57:46;2.30;;;2.07;;
77384;SDS011;66443;49.122;8.346;2023-12-28T10:00:11;3.30;;;2.27;;
77384;SDS011;66443;49.122;8.346;2023-12-28T10:02:37;2.40;;;2.20;;
77384;SDS011;66443;49.122;8.346;2023-12-28T10:05:04;2.33;;;2.13;;
77384;SDS011;66443;49.122;8.346;2023-12-28T10:07:30;2.33;;;2.13;;
77384;SDS011;66443;49.122;8.346;2023-12-28T10:09:56;2.87;;;2.67;;
77384;SDS011;66443;49.122;8.346;2023-12-28T10:12:21;2.90;;;2.70;;
77384;SDS011;66443;49.122;8.346;2023-12-28T10:14:46;3.27;;;2.97;;
77384;SDS011;66443;49.122;8.346;2023-12-28T10:17:12;3.50;;;2.80;;
77384;SDS011;66443;49.122;8.346;2023-12-28T10:19:37;3.70;;;2.17;;
77384;SDS011;66443;49.122;8.346;2023-12-28T10:22:02;3.10;;;2.80;;
77384;SDS011;66443;49.122;8.346;2023-12-28T10:24:27;3.10;;;2.90;;
77384;SDS011;66443;49.122;8.346;2023-12-28T10:26:52;4.10;;;3.53;;
77384;SDS011;66443;49.122;8.346;2023-12-28T10:29:18;4.30;;;3.83;;
77384;SDS011;66443;49.122;8.346;2023-12-28T10:31:43;4.80;;;3.67;;
77384;SDS011;66443;49.122;8.346;2023-12-28T10:34:08;4.10;;;3.40;;
77384;SDS011;66443;49.122;8.346;2023-12-28T10:36:34;3.53;;;3.00;;
77384;SDS011;66443;49.122;8.346;2023-12-28T10:39:01;3.40;;;3.10;;
77384;SDS011;66443;49.122;8.346;2023-12-28T10:41:29;4.57;;;4.17;;
77384;SDS011;66443;49.122;8.346;2023-12-28T10:44:05;3.93;;;3.57;;
77384;SDS011;66443;49.122;8.346;2023-12-28T10:46:31;4.83;;;2.50;;
77384;SDS011;66443;49.122;8.346;2023-12-28T10:49:03;3.03;;;2.73;;
77384;SDS011;66443;49.122;8.346;2023-12-28T10:51:30;4.47;;;2.87;;
77384;SDS011;66443;49.122;8.346;2023-12-28T10:56:46;3.37;;;3.03;;
77384;SDS011;66443;49.122;8.346;2023-12-28T11:01:38;2.63;;;2.35;;
77384;SDS011;66443;49.122;8.346;2023-12-28T11:04:07;2.80;;;2.60;;
77384;SDS011;66443;49.122;8.346;2023-12-28T11:06:35;3.00;;;2.70;;
77384;SDS011;66443;49.122;8.346;2023-12-28T11:09:01;2.97;;;2.77;;
77384;SDS011;66443;49.122;8.346;2023-12-28T11:11:28;3.20;;;2.63;;
77384;SDS011;66443;49.122;8.346;2023-12-28T11:13:55;3.00;;;2.70;;
77384;SDS011;66443;49.122;8.346;2023-12-28T11:16:21;5.53;;;3.27;;
77384;SDS011;66443;49.122;8.346;2023-12-28T11:18:47;4.43;;;2.90;;
77384;SDS011;66443;49.122;8.346;2023-12-28T11:21:12;3.90;;;2.70;;
77384;SDS011;66443;49.122;8.346;2023-12-28T11:23:38;2.97;;;2.67;;
77384;SDS011;66443;49.122;8.346;2023-12-28T11:26:03;5.40;;;3.37;;
77384;SDS011;66443;49.122;8.346;2023-12-28T11:28:29;4.10;;;3.80;;
77384;SDS011;66443;49.122;8.346;2023-12-28T11:30:55;3.13;;;2.90;;
77384;SDS011;66443;49.122;8.346;2023-12-28T11:33:21;3.33;;;3.03;;
77384;SDS011;66443;49.122;8.346;2023-12-28T11:35:47;3.53;;;2.87;;
77384;SDS011;66443;49.122;8.346;2023-12-28T11:38:12;3.90;;;2.70;;
77384;SDS011;66443;49.122;8.346;2023-12-28T11:40:44;3.57;;;3.27;;
77384;SDS011;66443;49.122;8.346;2023-12-28T11:43:18;5.27;;;2.57;;
77384;SDS011;66443;49.122;8.346;2023-12-28T11:45:51;3.40;;;3.10;;
77384;SDS011;66443;49.122;8.346;2023-12-28T11:48:23;3.27;;;2.97;;
77384;SDS011;66443;49.122;8.346;2023-12-28T11:50:50;2.93;;;2.73;;
77384;SDS011;66443;49.122;8.346;2023-12-28T11:53:15;2.90;;;2.70;;
77384;SDS011;66443;49.122;8.346;2023-12-28T11:55:41;3.10;;;2.80;;
77384;SDS011;66443;49.122;8.346;2023-12-28T11:58:06;3.10;;;2.90;;
77384;SDS011;66443;49.122;8.346;2023-12-28T12:00:32;3.60;;;2.70;;
77384;SDS011;66443;49.122;8.346;2023-12-28T12:02:57;2.83;;;2.63;;
77384;SDS011;66443;49.122;8.346;2023-12-28T12:05:22;3.40;;;2.93;;
77384;SDS011;66443;49.122;8.346;2023-12-28T12:07:48;2.50;;;2.30;;
77384;SDS011;66443;49.122;8.346;2023-12-28T12:10:17;3.63;;;2.83;;
77384;SDS011;66443;49.122;8.346;2023-12-28T12:12:42;3.90;;;2.43;;
77384;SDS011;66443;49.122;8.346;2023-12-28T12:15:08;3.13;;;2.80;;
77384;SDS011;66443;49.122;8.346;2023-12-28T12:17:33;3.17;;;2.83;;
77384;SDS011;66443;49.122;8.346;2023-12-28T12:19:58;3.17;;;2.87;;
77384;SDS011;66443;49.122;8.346;2023-12-28T12:22:23;3.53;;;2.53;;
77384;SDS011;66443;49.122;8.346;2023-12-28T12:24:49;3.77;;;3.47;;
77384;SDS011;66443;49.122;8.346;2023-12-28T12:27:15;3.83;;;2.23;;
77384;SDS011;66443;49.122;8.346;2023-12-28T12:29:40;2.90;;;2.70;;
77384;SDS011;66443;49.122;8.346;2023-12-28T12:32:06;2.30;;;2.10;;
77384;SDS011;66443;49.122;8.346;2023-12-28T12:34:32;3.17;;;2.17;;
77384;SDS011;66443;49.122;8.346;2023-12-28T12:36:57;2.60;;;2.30;;
77384;SDS011;66443;49.122;8.346;2023-12-28T12:39:23;2.40;;;2.20;;
77384;SDS011;66443;49.122;8.346;2023-12-28T12:41:49;2.00;;;1.60;;
77384;SDS011;66443;49.122;8.346;2023-12-28T12:44:14;1.67;;;1.57;;
77384;SDS011;66443;49.122;8.346;2023-12-28T12:46:41;1.80;;;1.70;;
77384;SDS011;66443;49.122;8.346;2023-12-28T12:49:07;2.97;;;2.47;;
77384;SDS011;66443;49.122;8.346;2023-12-28T12:51:32;2.33;;;2.13;;
77384;SDS011;66443;49.122;8.346;2023-12-28T12:53:58;2.87;;;2.03;;
77384;SDS011;66443;49.122;8.346;2023-12-28T12:56:23;2.40;;;2.20;;
77384;SDS011;66443;49.122;8.346;2023-12-28T12:58:49;2.10;;;1.90;;
77384;SDS011;66443;49.122;8.346;2023-12-28T13:01:14;2.90;;;2.20;;
77384;SDS011;66443;49.122;8.346;2023-12-28T13:03:39;2.13;;;1.93;;
77384;SDS011;66443;49.122;8.346;2023-12-28T13:06:05;2.67;;;1.87;;
77384;SDS011;66443;49.122;8.346;2023-12-28T13:08:30;3.63;;;3.27;;
77384;SDS011;66443;49.122;8.346;2023-12-28T13:10:55;2.20;;;2.00;;
77384;SDS011;66443;49.122;8.346;2023-12-28T13:13:20;2.50;;;2.40;;
77384;SDS011;66443;49.122;8.346;2023-12-28T13:15:45;2.73;;;2.53;;
77384;SDS011;66443;49.122;8.346;2023-12-28T13:18:10;2.07;;;1.90;;
77384;SDS011;66443;49.122;8.346;2023-12-28T13:20:36;2.63;;;2.00;;
77384;SDS011;66443;49.122;8.346;2023-12-28T13:23:01;2.37;;;1.93;;
77384;SDS011;66443;49.122;8.346;2023-12-28T13:25:26;2.43;;;2.23;;
77384;SDS011;66443;49.122;8.346;2023-12-28T13:27:52;2.40;;;1.83;;
77384;SDS011;66443;49.122;8.346;2023-12-28T13:30:17;3.10;;;2.17;;
77384;SDS011;66443;49.122;8.346;2023-12-28T13:32:42;2.53;;;2.33;;
77384;SDS011;66443;49.122;8.346;2023-12-28T13:35:07;3.47;;;2.50;;
77384;SDS011;66443;49.122;8.346;2023-12-28T13:37:32;2.97;;;2.77;;
77384;SDS011;66443;49.122;8.346;2023-12-28T13:39:58;3.50;;;2.23;;
77384;SDS011;66443;49.122;8.346;2023-12-28T13:42:23;3.10;;;2.90;;
77384;SDS011;66443;49.122;8.346;2023-12-28T13:44:48;3.30;;;3.00;;
77384;SDS011;66443;49.122;8.346;2023-12-28T13:47:13;3.87;;;3.47;;
77384;SDS011;66443;49.122;8.346;2023-12-28T13:49:38;4.77;;;4.27;;
77384;SDS011;66443;49.122;8.346;2023-12-28T13:52:04;6.17;;;5.67;;
77384;SDS011;66443;49.122;8.346;2023-12-28T13:54:29;3.40;;;3.10;;
77384;SDS011;66443;49.122;8.346;2023-12-28T13:56:54;4.43;;;3.20;;
77384;SDS011;66443;49.122;8.346;2023-12-28T13:59:22;3.30;;;2.97;;
77384;SDS011;66443;49.122;8.346;2023-12-28T14:01:48;3.70;;;3.40;;
77384;SDS011;66443;49.122;8.346;2023-12-28T14:04:13;4.10;;;3.70;;
77384;SDS011;66443;49.122;8.346;2023-12-28T14:06:38;7.30;;;5.00;;
77384;SDS011;66443;49.122;8.346;2023-12-28T14:09:03;4.70;;;3.90;;
77384;SDS011;66443;49.122;8.346;2023-12-28T14:11:28;5.77;;;4.37;;
77384;SDS011;66443;49.122;8.346;2023-12-28T14:13:54;4.90;;;4.43;;
77384;SDS011;66443;49.122;8.346;2023-12-28T14:16:19;4.20;;;3.70;;
77384;SDS011;66443;49.122;8.346;2023-12-28T14:18:44;4.60;;;4.20;;
77384;SDS011;66443;49.122;8.346;2023-12-28T14:21:09;4.20;;;3.80;;
77384;SDS011;66443;49.122;8.346;2023-12-28T14:23:35;5.93;;;4.20;;
77384;SDS011;66443;49.122;8.346;2023-12-28T14:26:02;4.17;;;3.80;;
77384;SDS011;66443;49.122;8.346;2023-12-28T14:28:27;4.30;;;3.90;;
77384;SDS011;66443;49.122;8.346;2023-12-28T14:30:56;3.87;;;3.40;;
77384;SDS011;66443;49.122;8.346;2023-12-28T14:33:22;4.27;;;3.87;;
77384;SDS011;66443;49.122;8.346;2023-12-28T14:35:47;4.33;;;3.93;;
77384;SDS011;66443;49.122;8.346;2023-12-28T14:38:13;3.83;;;3.53;;
77384;SDS011;66443;49.122;8.346;2023-12-28T14:40:39;4.97;;;4.53;;